createdAt,value
2024-02-13T00:04:26.598Z,4.40
2024-02-13T00:09:29.561Z,3.60
2024-02-13T00:14:32.495Z,3.90
2024-02-13T00:19:35.996Z,3.50
2024-02-13T00:24:40.195Z,3.90
2024-02-13T00:29:46.003Z,3.70
2024-02-13T00:34:51.303Z,3.40
2024-02-13T00:39:56.339Z,3.20
2024-02-13T00:45:04.690Z,3.80
2024-02-13T00:50:09.973Z,3.50
2024-02-13T00:55:13.248Z,3.70
2024-02-13T01:00:16.439Z,3.50
2024-02-13T01:05:20.319Z,2.50
2024-02-13T01:10:23.214Z,3.00
2024-02-13T01:15:28.266Z,3.00
2024-02-13T01:20:31.584Z,3.00
2024-02-13T01:25:36.448Z,2.90
2024-02-13T01:30:39.473Z,2.80
2024-02-13T01:35:44.154Z,2.60
2024-02-13T01:40:47.843Z,2.50
2024-02-13T01:45:50.773Z,2.50
2024-02-13T01:50:57.448Z,2.50
2024-02-13T01:56:04.024Z,2.20
2024-02-13T02:01:07.959Z,2.70
2024-02-13T02:06:11.205Z,2.40
2024-02-13T02:11:15.755Z,2.60
2024-02-13T02:16:18.840Z,2.20
2024-02-13T02:21:21.934Z,2.20
2024-02-13T02:26:26.446Z,2.10
2024-02-13T02:31:29.416Z,1.80
2024-02-13T02:36:33.521Z,1.90
2024-02-13T02:41:36.972Z,1.70
2024-02-13T02:46:40.804Z,1.40
2024-02-13T02:51:45.073Z,1.00
2024-02-13T02:56:48.062Z,0.90
2024-02-13T03:01:50.991Z,0.90
2024-02-13T03:06:56.039Z,0.60
2024-02-13T03:11:58.946Z,0.80
2024-02-13T03:17:02.042Z,0.60
2024-02-13T03:22:04.876Z,0.60
2024-02-13T03:27:07.723Z,0.80
2024-02-13T03:32:10.741Z,0.60
2024-02-13T03:37:15.093Z,0.50
2024-02-13T03:42:18.022Z,0.80
2024-02-13T03:47:21.067Z,0.90
2024-02-13T03:52:23.953Z,1.00
2024-02-13T03:57:26.914Z,1.00
2024-02-13T04:02:31.634Z,0.60
2024-02-13T04:07:36.819Z,0.80
2024-02-13T04:12:39.829Z,1.10
2024-02-13T04:17:43.314Z,0.70
2024-02-13T04:22:46.421Z,0.70
2024-02-13T04:27:49.297Z,1.10
2024-02-13T04:32:52.369Z,0.70
2024-02-13T04:37:55.537Z,0.90
2024-02-13T04:42:58.417Z,1.00
2024-02-13T04:48:01.653Z,1.10
2024-02-13T04:53:05.140Z,1.20
2024-02-13T04:58:09.380Z,1.30
2024-02-13T05:03:18.758Z,1.30
2024-02-13T05:08:23.006Z,1.70
2024-02-13T05:13:26.184Z,1.50
2024-02-13T05:18:29.364Z,1.90
2024-02-13T05:23:32.343Z,1.70
2024-02-13T05:28:38.758Z,2.10
2024-02-13T05:33:41.849Z,2.50
2024-02-13T05:38:45.797Z,2.50
2024-02-13T05:43:48.959Z,2.20
2024-02-13T05:48:55.634Z,2.40
2024-02-13T05:54:00.121Z,2.50
2024-02-13T05:59:04.463Z,2.20
2024-02-13T06:09:14.273Z,2.20
2024-02-13T06:14:17.530Z,2.50
2024-02-13T06:19:20.771Z,3.00
2024-02-13T06:24:25.099Z,3.00
2024-02-13T06:29:28.095Z,3.10
2024-02-13T06:34:31.083Z,3.00
2024-02-13T06:39:34.135Z,3.20
2024-02-13T06:44:38.237Z,3.20
2024-02-13T06:49:43.225Z,3.30
2024-02-13T06:54:50.383Z,3.10
2024-02-13T06:59:55.533Z,3.00
2024-02-13T07:04:58.440Z,2.80
2024-02-13T07:10:02.512Z,3.10
2024-02-13T07:15:07.771Z,3.10
2024-02-13T07:20:14.437Z,3.50
2024-02-13T07:25:17.429Z,2.60
2024-02-13T07:30:20.504Z,2.80
2024-02-13T07:35:24.197Z,2.10
2024-02-13T07:40:27.640Z,2.50
2024-02-13T07:45:30.566Z,2.10
2024-02-13T07:50:36.800Z,2.20
2024-02-13T07:55:39.951Z,2.10
2024-02-13T08:00:44.510Z,1.60
2024-02-13T08:05:47.606Z,2.30
2024-02-13T08:10:52.572Z,2.00
2024-02-13T08:15:56.194Z,2.10
2024-02-13T08:21:00.315Z,2.30
2024-02-13T08:26:03.690Z,2.30
2024-02-13T08:31:08.078Z,2.50
2024-02-13T08:36:12.975Z,1.90
2024-02-13T08:41:17.550Z,2.50
2024-02-13T08:46:23.797Z,2.40
2024-02-13T08:51:28.401Z,2.30
2024-02-13T08:56:31.816Z,2.10
2024-02-13T09:01:35.623Z,1.90
2024-02-13T09:06:39.291Z,2.70
2024-02-13T09:11:44.052Z,2.20
2024-02-13T09:16:47.246Z,2.20
2024-02-13T09:21:51.761Z,2.10
2024-02-13T09:26:55.244Z,2.20
2024-02-13T09:31:58.908Z,2.10
2024-02-13T09:37:02.063Z,1.90
2024-02-13T09:42:05.575Z,2.00
2024-02-13T09:47:10.583Z,3.00
2024-02-13T09:52:20.327Z,2.70
2024-02-13T09:57:24.039Z,2.30
2024-02-13T10:08:22.591Z,2.30
2024-02-13T10:13:47.080Z,2.10
2024-02-13T10:19:05.217Z,1.90
2024-02-13T10:24:46.307Z,2.10
2024-02-13T10:30:00.186Z,2.00
2024-02-13T10:41:02.669Z,2.70
2024-02-13T10:47:39.842Z,3.20
2024-02-13T10:52:59.402Z,2.30
2024-02-13T10:58:17.094Z,2.10
2024-02-13T11:03:25.915Z,2.50
2024-02-13T11:08:30.183Z,2.10
2024-02-13T11:13:35.481Z,2.30
2024-02-13T11:19:05.117Z,2.30
2024-02-13T11:24:10.613Z,2.40
2024-02-13T11:29:18.666Z,2.50
2024-02-13T11:34:23.745Z,2.80
2024-02-13T11:39:26.924Z,2.50
2024-02-13T11:44:32.022Z,2.70
2024-02-13T11:49:36.952Z,2.30
2024-02-13T11:54:46.238Z,4.00
2024-02-13T12:00:13.879Z,3.00
2024-02-13T12:05:17.870Z,2.30
2024-02-13T12:10:26.304Z,2.00
2024-02-13T12:15:30.513Z,1.80
2024-02-13T12:20:34.590Z,1.80
2024-02-13T12:25:37.720Z,1.90
2024-02-13T12:30:47.619Z,2.40
2024-02-13T12:36:07.135Z,1.80
2024-02-13T12:41:10.310Z,1.70
2024-02-13T12:46:14.425Z,1.60
2024-02-13T12:51:19.214Z,1.30
2024-02-13T12:56:26.761Z,1.50
2024-02-13T13:01:32.617Z,2.10
2024-02-13T13:06:38.233Z,1.40
2024-02-13T13:11:43.377Z,1.60
2024-02-13T13:16:46.833Z,1.80
2024-02-13T13:21:51.593Z,1.60
2024-02-13T13:26:55.240Z,1.80
2024-02-13T13:31:58.496Z,1.90
2024-02-13T13:37:01.718Z,1.80
2024-02-13T13:42:11.214Z,1.80
2024-02-13T13:47:14.294Z,1.90
2024-02-13T13:52:20.404Z,2.10
2024-02-13T13:57:24.165Z,2.70
2024-02-13T14:02:29.199Z,2.50
2024-02-13T14:07:34.931Z,2.30
2024-02-13T14:12:38.343Z,3.00
2024-02-13T14:17:43.701Z,2.40
2024-02-13T14:22:49.670Z,5.00
2024-02-13T14:27:55.954Z,2.80
2024-02-13T14:33:00.687Z,4.70
2024-02-13T14:38:04.940Z,5.10
2024-02-13T14:43:08.801Z,2.20
2024-02-13T14:48:14.901Z,1.90
2024-02-13T14:53:22.555Z,3.10
2024-02-13T14:58:34.366Z,3.30
2024-02-13T15:03:46.484Z,3.60
2024-02-13T15:08:53.153Z,4.50
2024-02-13T15:13:57.539Z,5.20
2024-02-13T15:19:04.075Z,4.20
2024-02-13T15:29:14.787Z,5.10
2024-02-13T15:34:18.680Z,3.60
2024-02-13T15:39:40.441Z,2.60
2024-02-13T15:45:02.620Z,2.80
2024-02-13T15:50:12.638Z,2.90
2024-02-13T15:55:19.936Z,3.20
2024-02-13T16:00:28.578Z,3.80
2024-02-13T16:05:33.443Z,2.40
2024-02-13T16:10:36.524Z,2.70
2024-02-13T16:15:39.530Z,2.60
2024-02-13T16:20:42.751Z,2.20
2024-02-13T16:25:45.681Z,2.60
2024-02-13T16:30:48.833Z,2.60
2024-02-13T16:35:51.864Z,4.20
2024-02-13T16:40:54.852Z,6.50
2024-02-13T16:45:57.832Z,5.50
2024-02-13T16:51:00.792Z,6.00
2024-02-13T16:56:04.559Z,5.40
2024-02-13T17:01:07.693Z,3.60
2024-02-13T17:06:10.860Z,4.50
2024-02-13T17:11:15.034Z,4.60
2024-02-13T17:16:18.253Z,7.30
2024-02-13T17:21:21.648Z,6.80
2024-02-13T17:26:24.828Z,7.90
2024-02-13T17:31:28.584Z,4.90
2024-02-13T17:36:32.752Z,4.80
2024-02-13T17:41:35.602Z,4.20
2024-02-13T17:46:39.124Z,4.80
2024-02-13T17:51:44.298Z,4.00
2024-02-13T17:56:48.911Z,4.30
2024-02-13T18:01:53.709Z,4.80
2024-02-13T18:06:57.239Z,4.10
2024-02-13T18:12:06.760Z,3.70
2024-02-13T18:17:11.626Z,2.90
2024-02-13T18:22:14.601Z,3.80
2024-02-13T18:27:17.708Z,4.30
2024-02-13T18:32:21.484Z,3.90
2024-02-13T18:37:29.163Z,5.70
2024-02-13T18:42:33.688Z,9.60
2024-02-13T18:47:37.259Z,8.80
2024-02-13T18:52:42.911Z,7.70
2024-02-13T18:57:49.150Z,7.20
2024-02-13T19:02:53.802Z,4.50
2024-02-13T19:07:57.986Z,5.30
2024-02-13T19:13:02.274Z,5.20
2024-02-13T19:18:05.726Z,5.70
2024-02-13T19:23:10.379Z,4.20
2024-02-13T19:28:14.424Z,4.50
2024-02-13T19:33:18.128Z,4.20
2024-02-13T19:38:21.586Z,5.20
2024-02-13T19:43:24.625Z,5.10
2024-02-13T19:48:27.926Z,6.80
2024-02-13T19:53:31.456Z,9.50
2024-02-13T19:58:35.669Z,9.10
2024-02-13T20:03:40.323Z,12.30
2024-02-13T20:08:43.426Z,9.90
2024-02-13T20:13:47.654Z,7.10
2024-02-13T20:18:51.043Z,4.70
2024-02-13T20:23:55.117Z,4.60
2024-02-13T20:28:58.104Z,4.30
2024-02-13T20:34:01.270Z,5.00
2024-02-13T20:39:11.565Z,6.30
2024-02-13T20:44:15.768Z,5.90
2024-02-13T20:49:19.480Z,7.10
2024-02-13T20:54:23.427Z,6.80
2024-02-13T20:59:30.928Z,6.60
2024-02-13T21:04:34.053Z,6.20
2024-02-13T21:09:38.247Z,7.00
2024-02-13T21:14:42.058Z,7.20
2024-02-13T21:19:44.997Z,7.90
2024-02-13T21:24:51.403Z,8.10
2024-02-13T21:29:54.361Z,7.90
2024-02-13T21:34:57.788Z,7.20
2024-02-13T21:40:00.867Z,7.30
2024-02-13T21:45:09.294Z,7.30
2024-02-13T21:50:14.508Z,7.40
2024-02-13T21:55:17.374Z,8.00
2024-02-13T22:00:20.598Z,8.00
2024-02-13T22:05:23.694Z,7.30
2024-02-13T22:10:26.814Z,8.10
2024-02-13T22:15:30.666Z,7.80
2024-02-13T22:20:38.372Z,8.10
2024-02-13T22:25:45.132Z,9.30
2024-02-13T22:30:48.054Z,8.10
2024-02-13T22:35:50.933Z,8.40
2024-02-13T22:40:54.113Z,8.40
2024-02-13T22:45:57.979Z,9.50
2024-02-13T22:51:00.925Z,9.40
2024-02-13T22:56:05.604Z,6.40
2024-02-13T23:01:08.665Z,8.90
2024-02-13T23:06:12.116Z,9.00
2024-02-13T23:11:15.500Z,9.50
2024-02-13T23:16:18.424Z,8.70
2024-02-13T23:21:21.477Z,9.70
2024-02-13T23:26:24.525Z,8.70
2024-02-13T23:31:27.524Z,9.10
2024-02-13T23:36:30.466Z,9.20
2024-02-13T23:41:33.953Z,9.90
2024-02-13T23:46:37.102Z,9.50
2024-02-13T23:51:40.981Z,8.30
2024-02-13T23:56:44.337Z,9.20
